sensor_id;sensor_type;location;lat;lon;timestamp;P1;durP1;ratioP1;P2;durP2;ratioP2
21046;SDS011;10682;50.874;3.656;2023-04-02T00:02:55;41.43;;;17.47;;
21046;SDS011;10682;50.874;3.656;2023-04-02T00:05:28;52.40;;;21.37;;
21046;SDS011;10682;50.874;3.656;2023-04-02T00:08:28;56.77;;;21.40;;
21046;SDS011;10682;50.874;3.656;2023-04-02T00:11:06;53.73;;;21.97;;
21046;SDS011;10682;50.874;3.656;2023-04-02T00:13:35;53.73;;;22.97;;
21046;SDS011;10682;50.874;3.656;2023-04-02T00:16:07;59.40;;;23.47;;
21046;SDS011;10682;50.874;3.656;2023-04-02T00:18:41;52.90;;;22.73;;
21046;SDS011;10682;50.874;3.656;2023-04-02T00:23:52;63.87;;;25.07;;
21046;SDS011;10682;50.874;3.656;2023-04-02T00:28:49;59.10;;;25.37;;
21046;SDS011;10682;50.874;3.656;2023-04-02T00:31:17;53.53;;;25.40;;
21046;SDS011;10682;50.874;3.656;2023-04-02T00:33:47;57.63;;;25.63;;
21046;SDS011;10682;50.874;3.656;2023-04-02T00:36:17;53.30;;;26.17;;
21046;SDS011;10682;50.874;3.656;2023-04-02T00:38:45;60.83;;;26.30;;
21046;SDS011;10682;50.874;3.656;2023-04-02T00:41:15;53.27;;;24.73;;
21046;SDS011;10682;50.874;3.656;2023-04-02T00:43:52;60.57;;;26.27;;
21046;SDS011;10682;50.874;3.656;2023-04-02T00:46:26;56.43;;;26.20;;
21046;SDS011;10682;50.874;3.656;2023-04-02T00:49:07;55.33;;;27.87;;
21046;SDS011;10682;50.874;3.656;2023-04-02T00:51:45;62.30;;;27.50;;
21046;SDS011;10682;50.874;3.656;2023-04-02T00:56:54;60.87;;;28.80;;
21046;SDS011;10682;50.874;3.656;2023-04-02T00:59:31;57.17;;;27.73;;
21046;SDS011;10682;50.874;3.656;2023-04-02T01:04:52;59.23;;;27.63;;
21046;SDS011;10682;50.874;3.656;2023-04-02T01:07:33;62.87;;;28.40;;
21046;SDS011;10682;50.874;3.656;2023-04-02T01:10:30;59.67;;;28.83;;
21046;SDS011;10682;50.874;3.656;2023-04-02T01:16:54;57.90;;;28.27;;
21046;SDS011;10682;50.874;3.656;2023-04-02T01:24:44;52.97;;;27.27;;
21046;SDS011;10682;50.874;3.656;2023-04-02T01:27:15;58.93;;;28.80;;
21046;SDS011;10682;50.874;3.656;2023-04-02T01:29:56;58.80;;;28.53;;
21046;SDS011;10682;50.874;3.656;2023-04-02T01:32:27;61.73;;;28.73;;
21046;SDS011;10682;50.874;3.656;2023-04-02T01:34:55;59.20;;;28.87;;
21046;SDS011;10682;50.874;3.656;2023-04-02T01:40:15;55.90;;;29.27;;
21046;SDS011;10682;50.874;3.656;2023-04-02T01:43:18;59.80;;;28.63;;
21046;SDS011;10682;50.874;3.656;2023-04-02T01:45:56;58.37;;;27.33;;
21046;SDS011;10682;50.874;3.656;2023-04-02T01:48:24;59.70;;;28.23;;
21046;SDS011;10682;50.874;3.656;2023-04-02T01:50:58;58.83;;;28.17;;
21046;SDS011;10682;50.874;3.656;2023-04-02T01:53:30;51.57;;;26.53;;
21046;SDS011;10682;50.874;3.656;2023-04-02T01:55:59;46.83;;;26.63;;
21046;SDS011;10682;50.874;3.656;2023-04-02T01:58:28;47.83;;;25.77;;
21046;SDS011;10682;50.874;3.656;2023-04-02T02:01:02;46.77;;;25.73;;
21046;SDS011;10682;50.874;3.656;2023-04-02T02:03:54;51.37;;;26.00;;
21046;SDS011;10682;50.874;3.656;2023-04-02T02:06:22;47.47;;;26.27;;
21046;SDS011;10682;50.874;3.656;2023-04-02T02:08:53;48.07;;;26.00;;
21046;SDS011;10682;50.874;3.656;2023-04-02T02:11:28;43.43;;;25.13;;
21046;SDS011;10682;50.874;3.656;2023-04-02T02:13:58;47.73;;;27.00;;
21046;SDS011;10682;50.874;3.656;2023-04-02T02:16:27;45.77;;;25.37;;
21046;SDS011;10682;50.874;3.656;2023-04-02T02:18:59;47.63;;;26.40;;
21046;SDS011;10682;50.874;3.656;2023-04-02T02:21:40;45.03;;;26.07;;
21046;SDS011;10682;50.874;3.656;2023-04-02T02:29:51;49.03;;;26.37;;
21046;SDS011;10682;50.874;3.656;2023-04-02T02:32:30;48.50;;;27.20;;
21046;SDS011;10682;50.874;3.656;2023-04-02T02:35:11;47.87;;;26.80;;
21046;SDS011;10682;50.874;3.656;2023-04-02T02:37:54;52.70;;;28.97;;
21046;SDS011;10682;50.874;3.656;2023-04-02T02:40:31;53.33;;;28.73;;
21046;SDS011;10682;50.874;3.656;2023-04-02T02:43:06;57.77;;;30.97;;
21046;SDS011;10682;50.874;3.656;2023-04-02T02:45:37;54.87;;;29.13;;
21046;SDS011;10682;50.874;3.656;2023-04-02T02:48:11;54.33;;;29.37;;
21046;SDS011;10682;50.874;3.656;2023-04-02T02:53:16;50.90;;;27.23;;
21046;SDS011;10682;50.874;3.656;2023-04-02T02:55:50;49.47;;;27.47;;
21046;SDS011;10682;50.874;3.656;2023-04-02T02:58:28;50.97;;;27.47;;
21046;SDS011;10682;50.874;3.656;2023-04-02T03:00:58;55.43;;;28.77;;
21046;SDS011;10682;50.874;3.656;2023-04-02T03:03:26;47.13;;;26.13;;
21046;SDS011;10682;50.874;3.656;2023-04-02T03:05:57;48.77;;;26.80;;
21046;SDS011;10682;50.874;3.656;2023-04-02T03:17:18;50.17;;;26.70;;
21046;SDS011;10682;50.874;3.656;2023-04-02T03:19:56;50.20;;;27.33;;
21046;SDS011;10682;50.874;3.656;2023-04-02T03:25:27;48.23;;;26.50;;
21046;SDS011;10682;50.874;3.656;2023-04-02T03:28:11;47.53;;;26.83;;
21046;SDS011;10682;50.874;3.656;2023-04-02T03:30:57;50.30;;;27.03;;
21046;SDS011;10682;50.874;3.656;2023-04-02T03:43:14;53.43;;;28.43;;
21046;SDS011;10682;50.874;3.656;2023-04-02T03:45:52;56.10;;;29.17;;
21046;SDS011;10682;50.874;3.656;2023-04-02T03:48:39;53.77;;;28.17;;
21046;SDS011;10682;50.874;3.656;2023-04-02T03:51:58;58.97;;;29.67;;
21046;SDS011;10682;50.874;3.656;2023-04-02T03:54:39;60.70;;;29.63;;
21046;SDS011;10682;50.874;3.656;2023-04-02T04:03:38;63.43;;;31.43;;
21046;SDS011;10682;50.874;3.656;2023-04-02T04:06:12;66.50;;;31.10;;
21046;SDS011;10682;50.874;3.656;2023-04-02T04:08:50;65.57;;;31.57;;
21046;SDS011;10682;50.874;3.656;2023-04-02T04:11:24;70.30;;;32.23;;
21046;SDS011;10682;50.874;3.656;2023-04-02T04:14:08;64.00;;;32.70;;
21046;SDS011;10682;50.874;3.656;2023-04-02T04:17:04;67.33;;;32.30;;
21046;SDS011;10682;50.874;3.656;2023-04-02T04:23:30;70.57;;;34.43;;
21046;SDS011;10682;50.874;3.656;2023-04-02T04:32:17;72.23;;;34.77;;
21046;SDS011;10682;50.874;3.656;2023-04-02T04:35:20;65.20;;;33.20;;
21046;SDS011;10682;50.874;3.656;2023-04-02T04:38:04;60.17;;;32.33;;
21046;SDS011;10682;50.874;3.656;2023-04-02T04:40:46;65.03;;;31.97;;
21046;SDS011;10682;50.874;3.656;2023-04-02T04:43:29;55.23;;;29.90;;
21046;SDS011;10682;50.874;3.656;2023-04-02T04:46:17;53.90;;;29.03;;
21046;SDS011;10682;50.874;3.656;2023-04-02T04:52:08;50.87;;;26.93;;
21046;SDS011;10682;50.874;3.656;2023-04-02T04:54:44;54.27;;;27.97;;
21046;SDS011;10682;50.874;3.656;2023-04-02T04:57:55;46.63;;;26.20;;
21046;SDS011;10682;50.874;3.656;2023-04-02T05:03:01;46.23;;;24.23;;
21046;SDS011;10682;50.874;3.656;2023-04-02T05:05:38;42.43;;;24.50;;
21046;SDS011;10682;50.874;3.656;2023-04-02T05:08:13;42.93;;;24.50;;
21046;SDS011;10682;50.874;3.656;2023-04-02T05:10:50;45.17;;;24.97;;
21046;SDS011;10682;50.874;3.656;2023-04-02T05:13:36;52.10;;;26.60;;
21046;SDS011;10682;50.874;3.656;2023-04-02T05:16:37;54.00;;;29.40;;
21046;SDS011;10682;50.874;3.656;2023-04-02T05:19:17;55.37;;;29.07;;
21046;SDS011;10682;50.874;3.656;2023-04-02T05:22:11;58.47;;;30.43;;
21046;SDS011;10682;50.874;3.656;2023-04-02T05:30:58;45.60;;;26.73;;
21046;SDS011;10682;50.874;3.656;2023-04-02T05:33:53;48.00;;;24.07;;
21046;SDS011;10682;50.874;3.656;2023-04-02T05:36:23;49.13;;;23.13;;
21046;SDS011;10682;50.874;3.656;2023-04-02T05:38:53;43.07;;;22.50;;
21046;SDS011;10682;50.874;3.656;2023-04-02T05:43:57;40.37;;;20.87;;
21046;SDS011;10682;50.874;3.656;2023-04-02T05:46:52;40.83;;;19.33;;
21046;SDS011;10682;50.874;3.656;2023-04-02T05:52:21;31.17;;;17.10;;
21046;SDS011;10682;50.874;3.656;2023-04-02T05:54:58;33.83;;;18.13;;
21046;SDS011;10682;50.874;3.656;2023-04-02T05:57:48;37.17;;;16.70;;
21046;SDS011;10682;50.874;3.656;2023-04-02T06:00:44;32.30;;;16.40;;
21046;SDS011;10682;50.874;3.656;2023-04-02T06:09:35;35.30;;;17.53;;
21046;SDS011;10682;50.874;3.656;2023-04-02T06:15:15;40.17;;;19.67;;
21046;SDS011;10682;50.874;3.656;2023-04-02T06:17:47;45.37;;;21.20;;
21046;SDS011;10682;50.874;3.656;2023-04-02T06:20:24;52.17;;;25.43;;
21046;SDS011;10682;50.874;3.656;2023-04-02T06:22:57;39.87;;;20.53;;
21046;SDS011;10682;50.874;3.656;2023-04-02T06:26:15;39.17;;;20.67;;
21046;SDS011;10682;50.874;3.656;2023-04-02T06:29:07;40.40;;;20.57;;
21046;SDS011;10682;50.874;3.656;2023-04-02T06:31:57;39.37;;;21.23;;
21046;SDS011;10682;50.874;3.656;2023-04-02T06:34:33;40.43;;;21.13;;
21046;SDS011;10682;50.874;3.656;2023-04-02T06:37:11;37.47;;;19.77;;
21046;SDS011;10682;50.874;3.656;2023-04-02T06:40:01;29.47;;;16.83;;
21046;SDS011;10682;50.874;3.656;2023-04-02T06:42:31;31.77;;;16.97;;
21046;SDS011;10682;50.874;3.656;2023-04-02T06:45:03;36.00;;;18.40;;
21046;SDS011;10682;50.874;3.656;2023-04-02T06:47:33;36.23;;;18.03;;
21046;SDS011;10682;50.874;3.656;2023-04-02T06:50:18;35.30;;;18.73;;
21046;SDS011;10682;50.874;3.656;2023-04-02T06:53:30;36.07;;;18.43;;
21046;SDS011;10682;50.874;3.656;2023-04-02T06:58:35;47.03;;;24.33;;
21046;SDS011;10682;50.874;3.656;2023-04-02T07:01:02;43.57;;;24.67;;
21046;SDS011;10682;50.874;3.656;2023-04-02T07:03:30;39.03;;;23.40;;
21046;SDS011;10682;50.874;3.656;2023-04-02T07:05:58;37.97;;;19.83;;
21046;SDS011;10682;50.874;3.656;2023-04-02T07:08:28;36.90;;;21.47;;
21046;SDS011;10682;50.874;3.656;2023-04-02T07:10:55;35.50;;;21.67;;
21046;SDS011;10682;50.874;3.656;2023-04-02T07:13:22;34.13;;;20.53;;
21046;SDS011;10682;50.874;3.656;2023-04-02T07:15:50;32.63;;;18.30;;
21046;SDS011;10682;50.874;3.656;2023-04-02T07:20:57;26.47;;;15.27;;
21046;SDS011;10682;50.874;3.656;2023-04-02T07:23:24;26.50;;;13.37;;
21046;SDS011;10682;50.874;3.656;2023-04-02T07:25:52;24.60;;;12.70;;
21046;SDS011;10682;50.874;3.656;2023-04-02T07:28:21;24.03;;;13.07;;
21046;SDS011;10682;50.874;3.656;2023-04-02T07:30:49;18.80;;;11.57;;
21046;SDS011;10682;50.874;3.656;2023-04-02T07:33:18;25.23;;;12.77;;
21046;SDS011;10682;50.874;3.656;2023-04-02T07:35:50;23.33;;;12.27;;
21046;SDS011;10682;50.874;3.656;2023-04-02T07:38:19;22.10;;;12.17;;
21046;SDS011;10682;50.874;3.656;2023-04-02T07:40:46;21.47;;;11.93;;
21046;SDS011;10682;50.874;3.656;2023-04-02T07:43:13;21.97;;;11.63;;
21046;SDS011;10682;50.874;3.656;2023-04-02T07:45:40;21.30;;;12.33;;
21046;SDS011;10682;50.874;3.656;2023-04-02T07:48:08;20.23;;;11.93;;
21046;SDS011;10682;50.874;3.656;2023-04-02T07:50:38;23.87;;;12.83;;
21046;SDS011;10682;50.874;3.656;2023-04-02T07:53:05;26.10;;;12.00;;
21046;SDS011;10682;50.874;3.656;2023-04-02T07:55:34;21.97;;;11.63;;
21046;SDS011;10682;50.874;3.656;2023-04-02T07:58:01;23.17;;;11.80;;
21046;SDS011;10682;50.874;3.656;2023-04-02T08:00:29;23.50;;;11.17;;
21046;SDS011;10682;50.874;3.656;2023-04-02T08:02:56;20.23;;;11.17;;
21046;SDS011;10682;50.874;3.656;2023-04-02T08:05:23;19.77;;;10.93;;
21046;SDS011;10682;50.874;3.656;2023-04-02T08:07:55;19.90;;;10.50;;
21046;SDS011;10682;50.874;3.656;2023-04-02T08:10:22;17.53;;;10.37;;
21046;SDS011;10682;50.874;3.656;2023-04-02T08:12:50;18.23;;;10.13;;
21046;SDS011;10682;50.874;3.656;2023-04-02T08:15:17;16.23;;;9.73;;
21046;SDS011;10682;50.874;3.656;2023-04-02T08:17:44;17.63;;;10.03;;
21046;SDS011;10682;50.874;3.656;2023-04-02T08:20:19;17.13;;;10.07;;
21046;SDS011;10682;50.874;3.656;2023-04-02T08:22:48;17.53;;;10.43;;
21046;SDS011;10682;50.874;3.656;2023-04-02T08:25:15;19.07;;;10.13;;
21046;SDS011;10682;50.874;3.656;2023-04-02T08:27:45;18.53;;;10.10;;
21046;SDS011;10682;50.874;3.656;2023-04-02T08:30:13;17.80;;;9.80;;
21046;SDS011;10682;50.874;3.656;2023-04-02T08:32:42;19.10;;;10.27;;
21046;SDS011;10682;50.874;3.656;2023-04-02T08:35:10;23.70;;;12.00;;
21046;SDS011;10682;50.874;3.656;2023-04-02T08:37:41;18.53;;;10.53;;
21046;SDS011;10682;50.874;3.656;2023-04-02T08:40:15;18.70;;;10.60;;
21046;SDS011;10682;50.874;3.656;2023-04-02T08:48:17;18.63;;;11.77;;
21046;SDS011;10682;50.874;3.656;2023-04-02T08:50:44;19.17;;;11.37;;
21046;SDS011;10682;50.874;3.656;2023-04-02T08:53:24;19.10;;;11.60;;
21046;SDS011;10682;50.874;3.656;2023-04-02T09:05:00;22.33;;;11.13;;
21046;SDS011;10682;50.874;3.656;2023-04-02T09:07:31;18.30;;;10.77;;
21046;SDS011;10682;50.874;3.656;2023-04-02T09:09:58;21.67;;;11.57;;
21046;SDS011;10682;50.874;3.656;2023-04-02T09:12:27;20.73;;;11.67;;
21046;SDS011;10682;50.874;3.656;2023-04-02T09:17:35;16.60;;;11.13;;
21046;SDS011;10682;50.874;3.656;2023-04-02T09:20:21;21.37;;;11.57;;
21046;SDS011;10682;50.874;3.656;2023-04-02T09:22:52;19.87;;;10.37;;
21046;SDS011;10682;50.874;3.656;2023-04-02T09:25:27;19.80;;;10.83;;
21046;SDS011;10682;50.874;3.656;2023-04-02T09:28:00;15.53;;;10.17;;
21046;SDS011;10682;50.874;3.656;2023-04-02T09:30:34;14.63;;;9.87;;
21046;SDS011;10682;50.874;3.656;2023-04-02T09:33:45;17.83;;;9.33;;
21046;SDS011;10682;50.874;3.656;2023-04-02T09:36:24;18.47;;;9.17;;
21046;SDS011;10682;50.874;3.656;2023-04-02T09:38:55;16.83;;;9.53;;
21046;SDS011;10682;50.874;3.656;2023-04-02T09:41:43;17.27;;;10.20;;
21046;SDS011;10682;50.874;3.656;2023-04-02T09:44:27;16.50;;;9.27;;
21046;SDS011;10682;50.874;3.656;2023-04-02T09:46:58;15.63;;;9.90;;
21046;SDS011;10682;50.874;3.656;2023-04-02T09:49:33;15.53;;;9.57;;
21046;SDS011;10682;50.874;3.656;2023-04-02T09:55:35;15.23;;;8.70;;
21046;SDS011;10682;50.874;3.656;2023-04-02T09:57:50;12.70;;;8.53;;
21046;SDS011;10682;50.874;3.656;2023-04-02T10:00:51;14.77;;;8.30;;
21046;SDS011;10682;50.874;3.656;2023-04-02T10:06:11;12.73;;;7.80;;
21046;SDS011;10682;50.874;3.656;2023-04-02T10:08:41;13.47;;;8.30;;
21046;SDS011;10682;50.874;3.656;2023-04-02T10:11:16;14.33;;;9.53;;
21046;SDS011;10682;50.874;3.656;2023-04-02T10:14:23;18.27;;;9.73;;
21046;SDS011;10682;50.874;3.656;2023-04-02T10:16:58;13.67;;;8.63;;
21046;SDS011;10682;50.874;3.656;2023-04-02T10:19:36;15.53;;;8.93;;
21046;SDS011;10682;50.874;3.656;2023-04-02T10:22:12;20.20;;;10.13;;
21046;SDS011;10682;50.874;3.656;2023-04-02T10:24:42;17.30;;;9.00;;
21046;SDS011;10682;50.874;3.656;2023-04-02T10:27:18;14.73;;;9.50;;
21046;SDS011;10682;50.874;3.656;2023-04-02T10:42:25;17.93;;;9.80;;
21046;SDS011;10682;50.874;3.656;2023-04-02T10:45:34;17.87;;;10.70;;
21046;SDS011;10682;50.874;3.656;2023-04-02T10:51:36;16.87;;;10.00;;
21046;SDS011;10682;50.874;3.656;2023-04-02T10:56:53;16.60;;;9.80;;
21046;SDS011;10682;50.874;3.656;2023-04-02T10:59:31;16.40;;;10.37;;
21046;SDS011;10682;50.874;3.656;2023-04-02T11:02:01;17.63;;;10.00;;
21046;SDS011;10682;50.874;3.656;2023-04-02T11:04:57;16.97;;;10.20;;
21046;SDS011;10682;50.874;3.656;2023-04-02T11:07:42;16.73;;;10.30;;
21046;SDS011;10682;50.874;3.656;2023-04-02T11:10:37;18.63;;;10.30;;
21046;SDS011;10682;50.874;3.656;2023-04-02T11:13:17;16.10;;;10.07;;
21046;SDS011;10682;50.874;3.656;2023-04-02T11:15:52;17.90;;;10.53;;
21046;SDS011;10682;50.874;3.656;2023-04-02T11:18:24;21.57;;;10.10;;
21046;SDS011;10682;50.874;3.656;2023-04-02T11:21:03;14.90;;;9.53;;
21046;SDS011;10682;50.874;3.656;2023-04-02T11:23:52;17.93;;;10.93;;
21046;SDS011;10682;50.874;3.656;2023-04-02T11:26:37;18.53;;;10.80;;
21046;SDS011;10682;50.874;3.656;2023-04-02T11:29:21;16.77;;;9.50;;
21046;SDS011;10682;50.874;3.656;2023-04-02T11:37:33;22.43;;;12.70;;
21046;SDS011;10682;50.874;3.656;2023-04-02T11:49:31;17.67;;;9.63;;
21046;SDS011;10682;50.874;3.656;2023-04-02T11:52:03;15.80;;;9.67;;
21046;SDS011;10682;50.874;3.656;2023-04-02T11:54:54;17.10;;;9.37;;
21046;SDS011;10682;50.874;3.656;2023-04-02T12:09:52;19.53;;;9.60;;
21046;SDS011;10682;50.874;3.656;2023-04-02T12:14:53;14.63;;;8.67;;
21046;SDS011;10682;50.874;3.656;2023-04-02T12:17:36;17.40;;;9.67;;
21046;SDS011;10682;50.874;3.656;2023-04-02T12:22:37;14.17;;;8.40;;
21046;SDS011;10682;50.874;3.656;2023-04-02T12:30:35;11.37;;;6.30;;
21046;SDS011;10682;50.874;3.656;2023-04-02T12:33:14;11.30;;;6.80;;
21046;SDS011;10682;50.874;3.656;2023-04-02T12:35:57;10.87;;;6.53;;
21046;SDS011;10682;50.874;3.656;2023-04-02T12:38:27;14.47;;;6.60;;
21046;SDS011;10682;50.874;3.656;2023-04-02T12:41:00;12.03;;;5.93;;
21046;SDS011;10682;50.874;3.656;2023-04-02T12:43:31;13.33;;;5.87;;
21046;SDS011;10682;50.874;3.656;2023-04-02T12:46:03;7.93;;;5.13;;
21046;SDS011;10682;50.874;3.656;2023-04-02T12:48:33;11.80;;;5.70;;
21046;SDS011;10682;50.874;3.656;2023-04-02T12:51:01;10.57;;;6.17;;
21046;SDS011;10682;50.874;3.656;2023-04-02T12:53:36;10.73;;;6.20;;
21046;SDS011;10682;50.874;3.656;2023-04-02T12:56:06;13.37;;;6.40;;
21046;SDS011;10682;50.874;3.656;2023-04-02T12:58:51;12.37;;;7.43;;
21046;SDS011;10682;50.874;3.656;2023-04-02T13:01:27;15.23;;;7.77;;
21046;SDS011;10682;50.874;3.656;2023-04-02T13:06:31;12.40;;;7.33;;
21046;SDS011;10682;50.874;3.656;2023-04-02T13:09:02;12.83;;;7.23;;
21046;SDS011;10682;50.874;3.656;2023-04-02T13:12:22;16.80;;;8.10;;
21046;SDS011;10682;50.874;3.656;2023-04-02T13:15:03;14.30;;;7.60;;
21046;SDS011;10682;50.874;3.656;2023-04-02T13:20:26;13.13;;;7.77;;
21046;SDS011;10682;50.874;3.656;2023-04-02T13:23:00;14.60;;;8.00;;
21046;SDS011;10682;50.874;3.656;2023-04-02T13:25:54;13.20;;;8.03;;
21046;SDS011;10682;50.874;3.656;2023-04-02T13:28:24;14.40;;;7.60;;
21046;SDS011;10682;50.874;3.656;2023-04-02T13:30:51;13.60;;;7.60;;
21046;SDS011;10682;50.874;3.656;2023-04-02T13:33:18;10.10;;;7.07;;
21046;SDS011;10682;50.874;3.656;2023-04-02T13:35:45;13.43;;;7.07;;
21046;SDS011;10682;50.874;3.656;2023-04-02T13:38:12;9.93;;;6.53;;
21046;SDS011;10682;50.874;3.656;2023-04-02T13:40:39;11.53;;;7.00;;
21046;SDS011;10682;50.874;3.656;2023-04-02T13:43:09;13.03;;;7.53;;
21046;SDS011;10682;50.874;3.656;2023-04-02T13:45:44;11.13;;;7.20;;
21046;SDS011;10682;50.874;3.656;2023-04-02T13:48:15;14.40;;;7.43;;
21046;SDS011;10682;50.874;3.656;2023-04-02T13:50:44;11.70;;;7.20;;
21046;SDS011;10682;50.874;3.656;2023-04-02T13:53:14;11.17;;;7.13;;
21046;SDS011;10682;50.874;3.656;2023-04-02T13:55:47;13.03;;;7.40;;
21046;SDS011;10682;50.874;3.656;2023-04-02T13:58:15;11.60;;;7.57;;
21046;SDS011;10682;50.874;3.656;2023-04-02T14:00:42;14.03;;;7.60;;
21046;SDS011;10682;50.874;3.656;2023-04-02T14:03:13;12.30;;;7.70;;
21046;SDS011;10682;50.874;3.656;2023-04-02T14:06:06;15.43;;;8.40;;
21046;SDS011;10682;50.874;3.656;2023-04-02T14:09:04;13.67;;;8.77;;
21046;SDS011;10682;50.874;3.656;2023-04-02T14:11:56;17.50;;;9.63;;
21046;SDS011;10682;50.874;3.656;2023-04-02T14:17:38;16.13;;;10.13;;
21046;SDS011;10682;50.874;3.656;2023-04-02T14:23:51;18.33;;;11.30;;
21046;SDS011;10682;50.874;3.656;2023-04-02T14:27:02;21.63;;;13.03;;
21046;SDS011;10682;50.874;3.656;2023-04-02T14:30:12;20.83;;;12.47;;
21046;SDS011;10682;50.874;3.656;2023-04-02T14:35:44;22.27;;;12.37;;
21046;SDS011;10682;50.874;3.656;2023-04-02T14:41:29;20.53;;;13.03;;
21046;SDS011;10682;50.874;3.656;2023-04-02T14:44:23;22.07;;;13.20;;
21046;SDS011;10682;50.874;3.656;2023-04-02T14:46:55;21.90;;;13.47;;
21046;SDS011;10682;50.874;3.656;2023-04-02T14:49:37;21.03;;;14.50;;
21046;SDS011;10682;50.874;3.656;2023-04-02T14:52:18;26.87;;;14.30;;
21046;SDS011;10682;50.874;3.656;2023-04-02T14:54:53;22.90;;;15.43;;
21046;SDS011;10682;50.874;3.656;2023-04-02T14:57:34;24.03;;;14.43;;
21046;SDS011;10682;50.874;3.656;2023-04-02T15:03:08;18.63;;;11.97;;
21046;SDS011;10682;50.874;3.656;2023-04-02T15:06:02;14.90;;;10.53;;
21046;SDS011;10682;50.874;3.656;2023-04-02T15:08:37;15.83;;;10.47;;
21046;SDS011;10682;50.874;3.656;2023-04-02T15:11:34;15.20;;;10.27;;
21046;SDS011;10682;50.874;3.656;2023-04-02T15:14:05;14.30;;;10.83;;
21046;SDS011;10682;50.874;3.656;2023-04-02T15:16:49;16.53;;;10.47;;
21046;SDS011;10682;50.874;3.656;2023-04-02T15:19:16;19.83;;;11.20;;
21046;SDS011;10682;50.874;3.656;2023-04-02T15:25:00;21.20;;;13.60;;
21046;SDS011;10682;50.874;3.656;2023-04-02T15:39:04;20.03;;;12.30;;
21046;SDS011;10682;50.874;3.656;2023-04-02T15:41:37;17.00;;;11.73;;
21046;SDS011;10682;50.874;3.656;2023-04-02T15:44:08;18.47;;;12.03;;
21046;SDS011;10682;50.874;3.656;2023-04-02T15:58:17;21.67;;;12.77;;
21046;SDS011;10682;50.874;3.656;2023-04-02T16:10:11;17.87;;;10.63;;
21046;SDS011;10682;50.874;3.656;2023-04-02T16:16:10;16.97;;;11.17;;
21046;SDS011;10682;50.874;3.656;2023-04-02T16:21:44;23.00;;;14.17;;
21046;SDS011;10682;50.874;3.656;2023-04-02T16:24:21;21.37;;;12.63;;
21046;SDS011;10682;50.874;3.656;2023-04-02T16:30:07;26.13;;;17.67;;
21046;SDS011;10682;50.874;3.656;2023-04-02T16:42:04;13.53;;;10.23;;
21046;SDS011;10682;50.874;3.656;2023-04-02T16:56:34;9.60;;;6.47;;
21046;SDS011;10682;50.874;3.656;2023-04-02T16:59:42;8.53;;;6.30;;
21046;SDS011;10682;50.874;3.656;2023-04-02T17:02:33;9.77;;;7.20;;
21046;SDS011;10682;50.874;3.656;2023-04-02T17:08:23;9.37;;;7.50;;
21046;SDS011;10682;50.874;3.656;2023-04-02T17:16:18;9.77;;;8.17;;
21046;SDS011;10682;50.874;3.656;2023-04-02T17:19:04;11.67;;;7.80;;
21046;SDS011;10682;50.874;3.656;2023-04-02T17:21:36;11.70;;;7.90;;
21046;SDS011;10682;50.874;3.656;2023-04-02T17:24:22;12.23;;;8.07;;
21046;SDS011;10682;50.874;3.656;2023-04-02T17:30:04;12.40;;;8.27;;
21046;SDS011;10682;50.874;3.656;2023-04-02T17:32:44;9.97;;;8.33;;
21046;SDS011;10682;50.874;3.656;2023-04-02T17:43:44;14.10;;;7.33;;
21046;SDS011;10682;50.874;3.656;2023-04-02T17:46:53;10.40;;;8.03;;
21046;SDS011;10682;50.874;3.656;2023-04-02T18:01:25;11.50;;;8.43;;
21046;SDS011;10682;50.874;3.656;2023-04-02T18:10:00;10.07;;;7.60;;
21046;SDS011;10682;50.874;3.656;2023-04-02T18:41:01;13.23;;;10.30;;
21046;SDS011;10682;50.874;3.656;2023-04-02T18:46:52;14.03;;;9.87;;
21046;SDS011;10682;50.874;3.656;2023-04-02T18:49:44;14.03;;;10.27;;
21046;SDS011;10682;50.874;3.656;2023-04-02T18:52:17;12.30;;;9.37;;
21046;SDS011;10682;50.874;3.656;2023-04-02T18:57:27;13.60;;;10.07;;
21046;SDS011;10682;50.874;3.656;2023-04-02T19:00:01;11.33;;;9.63;;
21046;SDS011;10682;50.874;3.656;2023-04-02T19:05:21;20.33;;;12.67;;
21046;SDS011;10682;50.874;3.656;2023-04-02T19:08:19;23.43;;;14.67;;
21046;SDS011;10682;50.874;3.656;2023-04-02T19:10:57;22.40;;;14.43;;
21046;SDS011;10682;50.874;3.656;2023-04-02T19:13:29;20.17;;;12.57;;
21046;SDS011;10682;50.874;3.656;2023-04-02T19:33:32;40.70;;;22.83;;
21046;SDS011;10682;50.874;3.656;2023-04-02T19:45:19;32.80;;;18.43;;
21046;SDS011;10682;50.874;3.656;2023-04-02T19:47:54;23.27;;;15.20;;
21046;SDS011;10682;50.874;3.656;2023-04-02T19:50:24;19.87;;;12.07;;
21046;SDS011;10682;50.874;3.656;2023-04-02T19:52:51;22.30;;;13.57;;
21046;SDS011;10682;50.874;3.656;2023-04-02T19:55:18;21.53;;;14.23;;
21046;SDS011;10682;50.874;3.656;2023-04-02T19:57:45;21.70;;;13.77;;
21046;SDS011;10682;50.874;3.656;2023-04-02T20:00:12;29.10;;;16.87;;
21046;SDS011;10682;50.874;3.656;2023-04-02T20:02:40;28.30;;;18.07;;
21046;SDS011;10682;50.874;3.656;2023-04-02T20:05:08;26.90;;;15.83;;
21046;SDS011;10682;50.874;3.656;2023-04-02T20:07:35;27.90;;;17.77;;
21046;SDS011;10682;50.874;3.656;2023-04-02T20:10:03;34.90;;;21.37;;
21046;SDS011;10682;50.874;3.656;2023-04-02T20:12:30;34.70;;;20.87;;
21046;SDS011;10682;50.874;3.656;2023-04-02T20:14:57;40.77;;;22.90;;
21046;SDS011;10682;50.874;3.656;2023-04-02T20:17:25;37.17;;;21.97;;
21046;SDS011;10682;50.874;3.656;2023-04-02T20:19:53;38.20;;;21.63;;
21046;SDS011;10682;50.874;3.656;2023-04-02T20:22:20;37.53;;;20.33;;
21046;SDS011;10682;50.874;3.656;2023-04-02T20:24:48;24.50;;;14.57;;
21046;SDS011;10682;50.874;3.656;2023-04-02T20:27:15;21.33;;;12.60;;
21046;SDS011;10682;50.874;3.656;2023-04-02T20:29:43;17.80;;;11.10;;
21046;SDS011;10682;50.874;3.656;2023-04-02T20:32:11;16.27;;;10.80;;
21046;SDS011;10682;50.874;3.656;2023-04-02T20:34:38;17.10;;;10.73;;
21046;SDS011;10682;50.874;3.656;2023-04-02T20:37:05;18.97;;;10.63;;
21046;SDS011;10682;50.874;3.656;2023-04-02T20:39:32;16.87;;;9.17;;
21046;SDS011;10682;50.874;3.656;2023-04-02T20:41:59;17.23;;;9.67;;
21046;SDS011;10682;50.874;3.656;2023-04-02T20:44:28;19.37;;;10.37;;
21046;SDS011;10682;50.874;3.656;2023-04-02T20:46:55;14.47;;;9.17;;
21046;SDS011;10682;50.874;3.656;2023-04-02T20:49:22;15.30;;;8.70;;
21046;SDS011;10682;50.874;3.656;2023-04-02T20:51:49;16.50;;;8.53;;
21046;SDS011;10682;50.874;3.656;2023-04-02T20:54:17;13.50;;;8.50;;
21046;SDS011;10682;50.874;3.656;2023-04-02T20:56:44;17.73;;;9.87;;
21046;SDS011;10682;50.874;3.656;2023-04-02T20:59:11;18.87;;;10.70;;
21046;SDS011;10682;50.874;3.656;2023-04-02T21:01:38;32.23;;;15.83;;
21046;SDS011;10682;50.874;3.656;2023-04-02T21:04:05;33.37;;;14.57;;
21046;SDS011;10682;50.874;3.656;2023-04-02T21:06:34;32.70;;;15.13;;
21046;SDS011;10682;50.874;3.656;2023-04-02T21:09:04;49.90;;;19.27;;
21046;SDS011;10682;50.874;3.656;2023-04-02T21:11:36;39.07;;;17.63;;
21046;SDS011;10682;50.874;3.656;2023-04-02T21:14:03;34.87;;;17.77;;
21046;SDS011;10682;50.874;3.656;2023-04-02T21:16:30;40.23;;;17.67;;
21046;SDS011;10682;50.874;3.656;2023-04-02T21:18:59;35.87;;;17.77;;
21046;SDS011;10682;50.874;3.656;2023-04-02T21:21:29;31.07;;;15.83;;
21046;SDS011;10682;50.874;3.656;2023-04-02T21:23:57;30.20;;;16.20;;
21046;SDS011;10682;50.874;3.656;2023-04-02T21:26:28;34.77;;;15.30;;
21046;SDS011;10682;50.874;3.656;2023-04-02T21:29:00;27.63;;;15.07;;